Decoded Metar for GMFM (MEKNES in MOROCCO) (IATA:MEK) | Meteo·Mobile Aviation Weather
aviador You're here:

GMFM Decoded Metar

MEKNES in MOROCCO
Report Time2018-08-21 22:00:00
UTC Time2018-08-21 22:16:36
Flight Rules vfr VFR
WindCalm
Visibility9999 m
Phenomena:N/A
Clouds:N/A
Expected CloudBase > 2,000 ft AGL from Temp-Dew spread
CeilingNone
Temp24°C (ISA +13)
Dew Point19°C (74% RH)
QNH1016 hPa
Density Alt3,455 ft
Elevation1,801 ft
Report Wrong Elevation
Raw Report
GMFM 212200Z 00000KT CAVOK 24/19 Q1016 NOSIG=

Extra information for GMFM:More info

Metar Taf Metar & Taf Last 4 Metars F.Rules Stats Wind Profile Meteogram Temp Stats Airport Information Weather charts Add Link Nearby VenuesMetar ALERT Operation Metar Decoded Social comments